createdAt,value
2023-03-17T00:03:35.870Z,15.27
2023-03-17T00:08:43.004Z,15.24
2023-03-17T00:13:49.395Z,15.24
2023-03-17T00:18:56.828Z,15.24
2023-03-17T00:24:03.952Z,15.26
2023-03-17T00:29:16.049Z,15.29
2023-03-17T00:34:22.040Z,15.32
2023-03-17T00:39:25.565Z,15.29
2023-03-17T00:44:34.847Z,15.29
2023-03-17T00:49:40.571Z,15.31
2023-03-17T00:54:46.975Z,15.28
2023-03-17T01:00:09.057Z,15.26
2023-03-17T01:05:14.018Z,15.26
2023-03-17T01:10:20.282Z,15.25
2023-03-17T01:15:33.673Z,15.22
2023-03-17T01:20:39.464Z,15.16
2023-03-17T01:25:45.064Z,15.15
2023-03-17T01:30:50.993Z,15.13
2023-03-17T01:35:55.715Z,15.13
2023-03-17T01:41:04.272Z,15.06
2023-03-17T01:46:38.343Z,15.00
2023-03-17T01:51:56.576Z,14.95
2023-03-17T01:57:28.379Z,14.93
2023-03-17T02:02:39.252Z,14.90
2023-03-17T02:07:56.499Z,14.82
2023-03-17T02:13:11.278Z,14.74
2023-03-17T02:20:28.344Z,14.70
2023-03-17T02:25:41.730Z,14.70
2023-03-17T02:30:46.910Z,14.70
2023-03-17T02:36:01.234Z,14.69
2023-03-17T02:41:06.869Z,14.65
2023-03-17T02:46:17.451Z,14.61
2023-03-17T02:51:22.105Z,14.59
2023-03-17T02:56:33.021Z,14.54
2023-03-17T03:01:43.345Z,14.50
2023-03-17T03:06:49.161Z,14.45
2023-03-17T03:11:55.032Z,14.42
2023-03-17T03:17:04.925Z,14.39
2023-03-17T03:22:15.803Z,14.41
2023-03-17T03:27:26.702Z,14.44
2023-03-17T03:32:30.558Z,14.47
2023-03-17T03:37:39.123Z,14.48
2023-03-17T03:42:44.120Z,14.47
2023-03-17T03:47:48.804Z,14.49
2023-03-17T03:53:04.821Z,14.52
2023-03-17T03:58:14.237Z,14.52
2023-03-17T04:03:21.833Z,14.54
2023-03-17T04:08:27.134Z,14.53
2023-03-17T04:13:32.880Z,14.53
2023-03-17T04:18:37.266Z,14.53
2023-03-17T04:23:47.716Z,14.52
2023-03-17T04:28:55.075Z,14.49
2023-03-17T04:34:03.035Z,14.49
2023-03-17T04:39:06.188Z,14.46
2023-03-17T04:44:15.160Z,14.46
2023-03-17T04:49:24.220Z,14.45
2023-03-17T04:54:29.467Z,14.43
2023-03-17T04:59:35.276Z,14.40
2023-03-17T05:12:49.789Z,14.62
2023-03-17T05:17:51.972Z,14.60
2023-03-17T05:22:53.880Z,14.59
2023-03-17T05:27:56.173Z,14.57
2023-03-17T05:32:58.853Z,14.55
2023-03-17T05:38:01.043Z,14.54
2023-03-17T05:43:03.543Z,14.51
2023-03-17T05:48:06.386Z,14.50
2023-03-17T05:53:08.874Z,14.50
2023-03-17T05:58:10.880Z,14.50
2023-03-17T06:03:13.793Z,14.50
2023-03-17T06:08:15.885Z,14.52
2023-03-17T06:13:19.021Z,14.53
2023-03-17T06:18:21.270Z,14.54
2023-03-17T06:23:23.895Z,14.56
2023-03-17T06:28:26.181Z,14.59
2023-03-17T06:33:32.757Z,14.61
2023-03-17T06:38:35.193Z,14.61
2023-03-17T06:43:37.494Z,14.61
2023-03-17T06:48:39.465Z,14.62
2023-03-17T06:53:41.627Z,14.65
2023-03-17T06:58:43.557Z,14.65
2023-03-17T07:03:45.684Z,14.65
2023-03-17T07:08:47.861Z,14.65
2023-03-17T07:13:51.100Z,14.62
2023-03-17T07:18:53.465Z,14.64
2023-03-17T07:23:56.403Z,14.66
2023-03-17T07:29:01.008Z,14.69
2023-03-17T07:34:06.821Z,14.73
2023-03-17T07:39:11.480Z,14.76
2023-03-17T07:44:14.150Z,14.80
2023-03-17T07:49:17.256Z,14.84
2023-03-17T07:54:19.451Z,14.91
2023-03-17T07:59:21.885Z,15.00
2023-03-17T08:04:27.259Z,15.68
2023-03-17T08:09:32.247Z,16.24
2023-03-17T08:14:37.748Z,16.56
2023-03-17T08:19:40.403Z,16.48
2023-03-17T08:24:43.730Z,16.46
2023-03-17T08:29:47.217Z,16.79
2023-03-17T08:34:55.615Z,17.56
2023-03-17T08:39:58.228Z,18.10
2023-03-17T08:45:00.470Z,18.01
2023-03-17T08:50:02.563Z,17.87
2023-03-17T08:55:05.175Z,17.76
2023-03-17T09:00:11.181Z,18.02
2023-03-17T09:05:16.099Z,18.05
2023-03-17T09:10:22.667Z,17.94
2023-03-17T09:15:24.863Z,18.16
2023-03-17T09:20:27.138Z,18.61
2023-03-17T09:25:31.237Z,18.56
2023-03-17T09:30:33.985Z,18.52
2023-03-17T09:35:36.516Z,18.23
2023-03-17T09:40:57.111Z,17.97
2023-03-17T09:46:17.264Z,17.47
2023-03-17T09:51:20.083Z,17.26
2023-03-17T09:56:24.100Z,17.60
2023-03-17T10:01:29.926Z,18.01
2023-03-17T10:06:39.028Z,18.28
2023-03-17T10:11:46.094Z,18.52
2023-03-17T10:17:01.586Z,18.56
2023-03-17T10:22:27.348Z,18.71
2023-03-17T10:27:34.915Z,18.27
2023-03-17T10:32:41.174Z,18.28
2023-03-17T10:37:46.364Z,18.25
2023-03-17T10:42:53.835Z,18.33
2023-03-17T10:47:58.528Z,18.11
2023-03-17T10:53:05.005Z,18.59
2023-03-17T10:58:15.624Z,19.00
2023-03-17T11:03:31.310Z,19.38
2023-03-17T11:08:36.286Z,19.52
2023-03-17T11:13:38.610Z,19.56
2023-03-17T11:18:43.273Z,19.08
2023-03-17T11:23:56.565Z,18.40
2023-03-17T11:29:27.718Z,18.30
2023-03-17T11:34:35.351Z,18.41
2023-03-17T11:40:02.973Z,18.41
2023-03-17T11:45:33.624Z,18.93
2023-03-17T11:50:44.513Z,19.26
2023-03-17T11:55:53.231Z,19.46
2023-03-17T12:01:00.452Z,19.13
2023-03-17T12:06:07.458Z,18.64
2023-03-17T12:11:15.356Z,18.59
2023-03-17T12:16:34.844Z,18.50
2023-03-17T12:21:45.726Z,18.78
2023-03-17T12:27:07.598Z,19.29
2023-03-17T12:32:38.142Z,19.29
2023-03-17T12:37:43.525Z,19.35
2023-03-17T12:42:54.547Z,18.84
2023-03-17T12:48:34.075Z,18.66
2023-03-17T12:53:56.514Z,18.18
2023-03-17T12:59:30.041Z,18.22
2023-03-17T13:04:56.775Z,18.17
2023-03-17T13:10:01.315Z,18.24
2023-03-17T13:15:03.811Z,18.64
2023-03-17T13:20:08.713Z,18.40
2023-03-17T13:25:33.600Z,18.30
2023-03-17T13:30:36.527Z,18.39
2023-03-17T13:36:16.548Z,18.33
2023-03-17T13:41:32.025Z,18.24
2023-03-17T13:46:44.224Z,18.16
2023-03-17T13:52:00.339Z,18.29
2023-03-17T13:57:22.785Z,18.37
2023-03-17T14:02:27.916Z,18.38
2023-03-17T14:07:49.601Z,18.46
2023-03-17T14:13:07.938Z,18.33
2023-03-17T14:18:16.539Z,18.16
2023-03-17T14:23:18.731Z,18.21
2023-03-17T14:28:34.624Z,18.11
2023-03-17T14:33:38.812Z,17.96
2023-03-17T14:38:50.683Z,17.77
2023-03-17T14:44:00.101Z,17.73
2023-03-17T14:49:16.431Z,17.77
2023-03-17T14:54:25.699Z,17.93
2023-03-17T14:59:41.122Z,17.91
2023-03-17T15:05:01.277Z,17.70
2023-03-17T15:10:18.108Z,17.54
2023-03-17T15:15:25.896Z,17.36
2023-03-17T15:20:31.584Z,17.33
2023-03-17T15:25:35.214Z,17.45
2023-03-17T15:30:47.438Z,17.51
2023-03-17T15:36:02.968Z,17.61
2023-03-17T15:41:05.076Z,17.56
2023-03-17T15:46:20.312Z,17.46
2023-03-17T15:51:22.617Z,17.55
2023-03-17T15:56:27.295Z,17.61
2023-03-17T16:01:31.720Z,17.58
2023-03-17T16:06:35.006Z,17.40
2023-03-17T16:11:38.832Z,17.19
2023-03-17T16:16:45.943Z,17.10
2023-03-17T16:21:48.389Z,17.00
2023-03-17T16:26:50.974Z,16.94
2023-03-17T16:31:53.131Z,16.98
2023-03-17T16:36:56.463Z,16.98
2023-03-17T16:41:59.676Z,16.91
2023-03-17T16:47:02.207Z,16.86
2023-03-17T16:52:08.396Z,16.70
2023-03-17T16:57:12.924Z,16.50
2023-03-17T17:02:17.892Z,16.33
2023-03-17T17:07:19.934Z,16.21
2023-03-17T17:12:21.723Z,16.15
2023-03-17T17:17:23.943Z,16.22
2023-03-17T17:22:26.178Z,16.16
2023-03-17T17:27:28.268Z,16.05
2023-03-17T17:32:30.227Z,16.08
2023-03-17T17:37:35.411Z,16.06
2023-03-17T17:42:37.713Z,16.00
2023-03-17T17:47:43.349Z,16.00
2023-03-17T17:52:54.142Z,15.97
2023-03-17T17:57:56.583Z,15.89
2023-03-17T18:02:59.179Z,15.76
2023-03-17T18:08:02.524Z,15.66
2023-03-17T18:13:07.212Z,15.73
2023-03-17T18:18:09.875Z,15.71
2023-03-17T18:23:12.264Z,15.65
2023-03-17T18:28:14.242Z,15.63
2023-03-17T18:33:17.708Z,15.61
2023-03-17T18:38:19.683Z,15.52
2023-03-17T18:43:22.378Z,15.46
2023-03-17T18:48:24.440Z,15.42
2023-03-17T18:53:27.589Z,15.39
2023-03-17T18:58:29.730Z,15.37
2023-03-17T19:03:35.876Z,15.35
2023-03-17T19:08:39.958Z,15.37
2023-03-17T19:13:52.531Z,15.41
2023-03-17T19:18:56.490Z,15.41
2023-03-17T19:24:00.880Z,15.43
2023-03-17T19:29:03.174Z,15.44
2023-03-17T19:34:05.368Z,15.45
2023-03-17T19:39:11.078Z,15.43
2023-03-17T19:44:13.131Z,15.49
2023-03-17T19:49:20.111Z,15.46
2023-03-17T19:54:23.388Z,15.45
2023-03-17T19:59:25.663Z,15.40
2023-03-17T20:04:27.664Z,15.37
2023-03-17T20:09:31.055Z,15.37
2023-03-17T20:14:34.702Z,15.37
2023-03-17T20:19:39.473Z,15.38
2023-03-17T20:24:42.476Z,15.36
2023-03-17T20:29:48.181Z,15.31
2023-03-17T20:34:50.844Z,15.24
2023-03-17T20:39:54.894Z,15.24
2023-03-17T20:45:03.400Z,15.22
2023-03-17T20:50:08.663Z,15.15
2023-03-17T20:55:14.764Z,15.10
2023-03-17T21:00:24.800Z,15.09
2023-03-17T21:05:27.772Z,15.09
2023-03-17T21:10:30.058Z,15.12
2023-03-17T21:15:32.388Z,15.18
2023-03-17T21:20:34.311Z,15.23
2023-03-17T21:25:37.175Z,15.26
2023-03-17T21:30:43.108Z,15.24
2023-03-17T21:35:45.456Z,15.24
2023-03-17T21:40:47.598Z,15.26
2023-03-17T21:45:50.673Z,15.28
2023-03-17T21:50:53.518Z,15.33
2023-03-17T21:55:55.587Z,15.36
2023-03-17T22:00:57.629Z,15.36
2023-03-17T22:05:59.805Z,15.34
2023-03-17T22:11:10.193Z,15.33
2023-03-17T22:16:16.628Z,15.35
2023-03-17T22:21:20.863Z,15.37
2023-03-17T22:26:23.060Z,15.37
2023-03-17T22:31:26.498Z,15.39
2023-03-17T22:36:30.259Z,15.39
2023-03-17T22:41:32.565Z,15.42
2023-03-17T22:46:35.359Z,15.43
2023-03-17T22:51:38.219Z,15.41
2023-03-17T22:56:40.228Z,15.34
2023-03-17T23:01:43.003Z,15.32
2023-03-17T23:06:45.228Z,15.25
2023-03-17T23:11:47.386Z,15.25
2023-03-17T23:16:49.340Z,15.20
2023-03-17T23:21:51.365Z,15.16
2023-03-17T23:26:53.529Z,15.14
2023-03-17T23:31:55.420Z,15.17
2023-03-17T23:36:57.381Z,15.17
2023-03-17T23:41:59.469Z,15.19
2023-03-17T23:47:02.382Z,15.22
2023-03-17T23:52:07.272Z,15.22
2023-03-17T23:57:09.307Z,15.22
